VXP1194 KJQF-KHVN
Flight info
| Callsign | VXP1194 |
|---|---|
| Flight time | 1h 29m |
| Altitude | 37000 |
| Route | BARMY5 TYI Q64 KALDA SARDI1 |
| Aircraft | B738/M-SDE2E3FGHIRWXY/LB1 |
Departure
| Time | 2026-04-22 20:16 |
|---|---|
| Airport | Concord-Padgett Regional Airport (KJQF) |
Arrival
| Time | 2026-04-22 21:45 |
|---|---|
| Airport | Tweed New Haven Airport (KHVN) |
| Time | Latitude | Longitude | Altitude | Speed | Heading |
|---|---|---|---|---|---|
| 2026-04-22 19:48 | 35.37989 | -80.71333 | 666 ft | 0 kts | 327° |
| 2026-04-22 20:08 | 35.37980 | -80.71326 | 664 ft | 3 kts | 319° |
| 2026-04-22 20:08 | 35.37967 | -80.71307 | 666 ft | 3 kts | 279° |
| 2026-04-22 20:08 | 35.37967 | -80.71285 | 666 ft | 3 kts | 311° |
| 2026-04-22 20:08 | 35.37980 | -80.71283 | 665 ft | 1 kts | 10° |
| 2026-04-22 20:09 | 35.37979 | -80.71283 | 665 ft | 0 kts | 10° |
| 2026-04-22 20:11 | 35.37989 | -80.71281 | 666 ft | 4 kts | 11° |
| 2026-04-22 20:11 | 35.38050 | -80.71268 | 666 ft | 9 kts | 11° |
| 2026-04-22 20:11 | 35.38086 | -80.71231 | 666 ft | 7 kts | 75° |
| 2026-04-22 20:12 | 35.38126 | -80.71198 | 670 ft | 7 kts | 14° |
| 2026-04-22 20:12 | 35.38193 | -80.71182 | 669 ft | 15 kts | 10° |
| 2026-04-22 20:12 | 35.38326 | -80.71152 | 667 ft | 23 kts | 10° |
| 2026-04-22 20:12 | 35.38487 | -80.71116 | 668 ft | 23 kts | 10° |
| 2026-04-22 20:13 | 35.38642 | -80.71081 | 667 ft | 22 kts | 9° |
| 2026-04-22 20:13 | 35.38793 | -80.71050 | 666 ft | 22 kts | 9° |
| 2026-04-22 20:13 | 35.38938 | -80.71014 | 667 ft | 21 kts | 11° |
| 2026-04-22 20:13 | 35.39080 | -80.70983 | 668 ft | 20 kts | 12° |
| 2026-04-22 20:14 | 35.39218 | -80.70951 | 669 ft | 20 kts | 10° |
| 2026-04-22 20:14 | 35.39351 | -80.70922 | 667 ft | 19 kts | 9° |
| 2026-04-22 20:14 | 35.39479 | -80.70892 | 667 ft | 19 kts | 11° |
| 2026-04-22 20:14 | 35.39604 | -80.70863 | 668 ft | 18 kts | 11° |
| 2026-04-22 20:15 | 35.39724 | -80.70837 | 665 ft | 17 kts | 9° |
| 2026-04-22 20:15 | 35.39783 | -80.70787 | 664 ft | 11 kts | 93° |
| 2026-04-22 20:15 | 35.39755 | -80.70706 | 663 ft | 11 kts | 157° |
| 2026-04-22 20:15 | 35.39678 | -80.70710 | 662 ft | 13 kts | 189° |
| 2026-04-22 20:16 | 35.39302 | -80.70797 | 666 ft | 101 kts | 190° |
| 2026-04-22 20:16 | 35.38340 | -80.71035 | 680 ft | 178 kts | 192° |
| 2026-04-22 20:16 | 35.36997 | -80.71317 | 1383 ft | 193 kts | 190° |
| 2026-04-22 20:16 | 35.35639 | -80.71536 | 2379 ft | 213 kts | 192° |
| 2026-04-22 20:17 | 35.34086 | -80.71549 | 3118 ft | 232 kts | 168° |
| 2026-04-22 20:17 | 35.32740 | -80.70465 | 4233 ft | 237 kts | 129° |
| 2026-04-22 20:17 | 35.32006 | -80.68662 | 5364 ft | 236 kts | 113° |
| 2026-04-22 20:17 | 35.31413 | -80.66887 | 6682 ft | 209 kts | 116° |
| 2026-04-22 20:18 | 35.30813 | -80.65320 | 7691 ft | 206 kts | 112° |
| 2026-04-22 20:18 | 35.30324 | -80.63550 | 8017 ft | 234 kts | 110° |
| 2026-04-22 20:18 | 35.29747 | -80.61552 | 8267 ft | 264 kts | 111° |
| 2026-04-22 20:18 | 35.29077 | -80.59332 | 8529 ft | 292 kts | 111° |
| 2026-04-22 20:19 | 35.28361 | -80.56979 | 9194 ft | 303 kts | 111° |
| 2026-04-22 20:19 | 35.27620 | -80.54538 | 10054 ft | 308 kts | 111° |
| 2026-04-22 20:19 | 35.26858 | -80.52026 | 10547 ft | 326 kts | 111° |
| 2026-04-22 20:19 | 35.26035 | -80.49320 | 10750 ft | 353 kts | 110° |
| 2026-04-22 20:20 | 35.25349 | -80.46329 | 10904 ft | 378 kts | 94° |
| 2026-04-22 20:20 | 35.25556 | -80.43050 | 11209 ft | 395 kts | 78° |
| 2026-04-22 20:20 | 35.26036 | -80.39704 | 11794 ft | 403 kts | 78° |
| 2026-04-22 20:20 | 35.26520 | -80.36317 | 12533 ft | 406 kts | 78° |
| 2026-04-22 20:21 | 35.26996 | -80.32891 | 13295 ft | 410 kts | 78° |
| 2026-04-22 20:21 | 35.27464 | -80.29427 | 14006 ft | 414 kts | 78° |
| 2026-04-22 20:21 | 35.27920 | -80.25978 | 14638 ft | 418 kts | 78° |
| 2026-04-22 20:21 | 35.28381 | -80.22453 | 15344 ft | 420 kts | 78° |
| 2026-04-22 20:22 | 35.28848 | -80.18866 | 16040 ft | 423 kts | 78° |
| 2026-04-22 20:22 | 35.29305 | -80.15346 | 16671 ft | 426 kts | 78° |
| 2026-04-22 20:22 | 35.29772 | -80.11746 | 17251 ft | 430 kts | 78° |
| 2026-04-22 20:22 | 35.30341 | -80.08152 | 17844 ft | 432 kts | 72° |
| 2026-04-22 20:23 | 35.31283 | -80.04654 | 18481 ft | 433 kts | 67° |
| 2026-04-22 20:23 | 35.32375 | -80.01202 | 19004 ft | 435 kts | 66° |
| 2026-04-22 20:23 | 35.33483 | -79.97745 | 19517 ft | 439 kts | 66° |
| 2026-04-22 20:23 | 35.34569 | -79.94237 | 20076 ft | 441 kts | 67° |
| 2026-04-22 20:24 | 35.35625 | -79.90692 | 20598 ft | 444 kts | 68° |
| 2026-04-22 20:24 | 35.36668 | -79.87113 | 21090 ft | 448 kts | 68° |
| 2026-04-22 20:24 | 35.37697 | -79.83559 | 21546 ft | 451 kts | 68° |
| 2026-04-22 20:24 | 35.38749 | -79.79931 | 21992 ft | 454 kts | 68° |
| 2026-04-22 20:25 | 35.39814 | -79.76264 | 22436 ft | 457 kts | 68° |
| 2026-04-22 20:25 | 35.40884 | -79.72584 | 22876 ft | 460 kts | 68° |
| 2026-04-22 20:25 | 35.41960 | -79.68874 | 23312 ft | 463 kts | 68° |
| 2026-04-22 20:25 | 35.43043 | -79.65137 | 23737 ft | 466 kts | 68° |
| 2026-04-22 20:26 | 35.44126 | -79.61394 | 24100 ft | 468 kts | 68° |
| 2026-04-22 20:26 | 35.45216 | -79.57622 | 24481 ft | 469 kts | 68° |
| 2026-04-22 20:26 | 35.46306 | -79.53842 | 24866 ft | 471 kts | 68° |
| 2026-04-22 20:26 | 35.47400 | -79.50044 | 25236 ft | 473 kts | 68° |
| 2026-04-22 20:27 | 35.48494 | -79.46240 | 25587 ft | 475 kts | 68° |
| 2026-04-22 20:27 | 35.49593 | -79.42414 | 25941 ft | 476 kts | 68° |
| 2026-04-22 20:27 | 35.50682 | -79.38617 | 26203 ft | 480 kts | 68° |
| 2026-04-22 20:27 | 35.51794 | -79.34738 | 26493 ft | 483 kts | 68° |
| 2026-04-22 20:28 | 35.52906 | -79.30846 | 26836 ft | 484 kts | 68° |
| 2026-04-22 20:28 | 35.54020 | -79.26945 | 27192 ft | 485 kts | 68° |
| 2026-04-22 20:28 | 35.55130 | -79.23050 | 27617 ft | 483 kts | 68° |
| 2026-04-22 20:28 | 35.56237 | -79.19162 | 28116 ft | 481 kts | 68° |
| 2026-04-22 20:29 | 35.57339 | -79.15288 | 28638 ft | 478 kts | 68° |
| 2026-04-22 20:29 | 35.58431 | -79.11444 | 29125 ft | 476 kts | 68° |
| 2026-04-22 20:29 | 35.59521 | -79.07607 | 29572 ft | 475 kts | 68° |
| 2026-04-22 20:29 | 35.60611 | -79.03774 | 30017 ft | 475 kts | 67° |
| 2026-04-22 20:30 | 35.61704 | -78.99938 | 30355 ft | 476 kts | 67° |
| 2026-04-22 20:30 | 35.62781 | -78.96155 | 30713 ft | 475 kts | 67° |
| 2026-04-22 20:30 | 35.63867 | -78.92332 | 31122 ft | 473 kts | 67° |
| 2026-04-22 20:30 | 35.64948 | -78.88522 | 31529 ft | 471 kts | 67° |
| 2026-04-22 20:31 | 35.66025 | -78.84720 | 31892 ft | 471 kts | 67° |
| 2026-04-22 20:31 | 35.67099 | -78.80920 | 32220 ft | 470 kts | 67° |
| 2026-04-22 20:31 | 35.68170 | -78.77129 | 32581 ft | 469 kts | 67° |
| 2026-04-22 20:31 | 35.69239 | -78.73338 | 32972 ft | 468 kts | 67° |
| 2026-04-22 20:32 | 35.70302 | -78.69562 | 33327 ft | 467 kts | 67° |
| 2026-04-22 20:32 | 35.71363 | -78.65789 | 33654 ft | 467 kts | 67° |
| 2026-04-22 20:32 | 35.72426 | -78.62002 | 33989 ft | 467 kts | 67° |
| 2026-04-22 20:32 | 35.73480 | -78.58244 | 34364 ft | 464 kts | 67° |
| 2026-04-22 20:33 | 35.74520 | -78.54529 | 34613 ft | 465 kts | 67° |
| 2026-04-22 20:33 | 35.75571 | -78.50771 | 34806 ft | 466 kts | 67° |
| 2026-04-22 20:33 | 35.76629 | -78.46987 | 35015 ft | 468 kts | 67° |
| 2026-04-22 20:33 | 35.77686 | -78.43198 | 35272 ft | 467 kts | 67° |
| 2026-04-22 20:34 | 35.78739 | -78.39414 | 35533 ft | 467 kts | 67° |
| 2026-04-22 20:34 | 35.79795 | -78.35617 | 35760 ft | 468 kts | 67° |
| 2026-04-22 20:34 | 35.80846 | -78.31832 | 35969 ft | 469 kts | 67° |
| 2026-04-22 20:34 | 35.81903 | -78.28021 | 36196 ft | 469 kts | 67° |
| 2026-04-22 20:35 | 35.82955 | -78.24223 | 36433 ft | 469 kts | 67° |
| 2026-04-22 20:35 | 35.84009 | -78.20412 | 36655 ft | 469 kts | 67° |
| 2026-04-22 20:35 | 35.85047 | -78.16654 | 36844 ft | 470 kts | 67° |
| 2026-04-22 20:35 | 35.86100 | -78.12835 | 37061 ft | 471 kts | 67° |
| 2026-04-22 20:36 | 35.87153 | -78.09013 | 37098 ft | 474 kts | 68° |
| 2026-04-22 20:36 | 35.89275 | -78.01292 | 37102 ft | 475 kts | 68° |
| 2026-04-22 20:37 | 35.91381 | -77.93596 | 37110 ft | 470 kts | 68° |
| 2026-04-22 20:37 | 35.93469 | -77.85954 | 37110 ft | 471 kts | 68° |
| 2026-04-22 20:38 | 35.95558 | -77.78293 | 37093 ft | 472 kts | 68° |
| 2026-04-22 20:38 | 35.97757 | -77.70723 | 37065 ft | 468 kts | 57° |
| 2026-04-22 20:38 | 35.99640 | -77.67528 | 37120 ft | 457 kts | 43° |
| 2026-04-22 20:39 | 36.01803 | -77.64658 | 37075 ft | 458 kts | 42° |
| 2026-04-22 20:39 | 36.06190 | -77.58944 | 37087 ft | 459 kts | 42° |
| 2026-04-22 20:40 | 36.10522 | -77.53205 | 37108 ft | 460 kts | 43° |
| 2026-04-22 20:40 | 36.14860 | -77.47375 | 37088 ft | 461 kts | 43° |
| 2026-04-22 20:41 | 36.19198 | -77.41517 | 37080 ft | 462 kts | 43° |
| 2026-04-22 20:41 | 36.23541 | -77.35647 | 37076 ft | 462 kts | 43° |
| 2026-04-22 20:42 | 36.27880 | -77.29774 | 37068 ft | 462 kts | 43° |
| 2026-04-22 20:42 | 36.32214 | -77.23972 | 37065 ft | 460 kts | 40° |
| 2026-04-22 20:43 | 36.36905 | -77.18608 | 37065 ft | 458 kts | 37° |
| 2026-04-22 20:43 | 36.41696 | -77.13395 | 37064 ft | 457 kts | 37° |
| 2026-04-22 20:44 | 36.46451 | -77.08155 | 37070 ft | 457 kts | 37° |
| 2026-04-22 20:44 | 36.51151 | -77.02902 | 37070 ft | 457 kts | 37° |
| 2026-04-22 20:45 | 36.55862 | -76.97603 | 37084 ft | 456 kts | 37° |
| 2026-04-22 20:45 | 36.60560 | -76.92306 | 37054 ft | 455 kts | 37° |
| 2026-04-22 20:46 | 36.67584 | -76.84374 | 37068 ft | 454 kts | 37° |
| 2026-04-22 20:46 | 36.72226 | -76.79124 | 37061 ft | 454 kts | 37° |
| 2026-04-22 20:47 | 36.76900 | -76.73827 | 37064 ft | 453 kts | 38° |
| 2026-04-22 20:47 | 36.81560 | -76.68537 | 37068 ft | 453 kts | 38° |
| 2026-04-22 20:48 | 36.86227 | -76.63229 | 37068 ft | 454 kts | 38° |
| 2026-04-22 20:48 | 36.90861 | -76.57951 | 37063 ft | 454 kts | 38° |
| 2026-04-22 20:49 | 36.95519 | -76.52635 | 37089 ft | 454 kts | 38° |
| 2026-04-22 20:49 | 37.00181 | -76.47307 | 37042 ft | 454 kts | 38° |
| 2026-04-22 20:50 | 37.04845 | -76.41966 | 37035 ft | 454 kts | 38° |
| 2026-04-22 20:50 | 37.09475 | -76.36655 | 37041 ft | 454 kts | 38° |
| 2026-04-22 20:51 | 37.14125 | -76.31311 | 37036 ft | 454 kts | 38° |
| 2026-04-22 20:51 | 37.18783 | -76.25949 | 37052 ft | 454 kts | 38° |
| 2026-04-22 20:52 | 37.23443 | -76.20577 | 37051 ft | 454 kts | 38° |
| 2026-04-22 20:52 | 37.28092 | -76.15206 | 37068 ft | 454 kts | 38° |
| 2026-04-22 20:53 | 37.32739 | -76.09829 | 37065 ft | 454 kts | 38° |
| 2026-04-22 20:53 | 37.37350 | -76.04483 | 37090 ft | 454 kts | 38° |
| 2026-04-22 20:54 | 37.41999 | -75.99084 | 37069 ft | 455 kts | 38° |
| 2026-04-22 20:54 | 37.46643 | -75.93681 | 37062 ft | 455 kts | 38° |
| 2026-04-22 20:55 | 37.51290 | -75.88265 | 37068 ft | 454 kts | 38° |
| 2026-04-22 20:55 | 37.56213 | -75.83509 | 37076 ft | 446 kts | 26° |
| 2026-04-22 20:56 | 37.61567 | -75.79580 | 37068 ft | 445 kts | 25° |
| 2026-04-22 20:56 | 37.66919 | -75.75638 | 37073 ft | 446 kts | 26° |
| 2026-04-22 20:57 | 37.72249 | -75.71638 | 37056 ft | 447 kts | 26° |
| 2026-04-22 20:57 | 37.77590 | -75.67602 | 37065 ft | 447 kts | 26° |
| 2026-04-22 20:58 | 37.82889 | -75.63595 | 37064 ft | 447 kts | 26° |
| 2026-04-22 20:58 | 37.88140 | -75.59341 | 37067 ft | 450 kts | 30° |
| 2026-04-22 20:59 | 37.93270 | -75.54789 | 37062 ft | 450 kts | 30° |
| 2026-04-22 20:59 | 37.98397 | -75.50277 | 37065 ft | 449 kts | 29° |
| 2026-04-22 21:00 | 38.03538 | -75.45800 | 37066 ft | 447 kts | 29° |
| 2026-04-22 21:00 | 38.08661 | -75.41449 | 37075 ft | 445 kts | 27° |
| 2026-04-22 21:01 | 38.13884 | -75.37250 | 37065 ft | 444 kts | 27° |
| 2026-04-22 21:01 | 38.19101 | -75.33025 | 37050 ft | 444 kts | 27° |
| 2026-04-22 21:02 | 38.24299 | -75.28776 | 37053 ft | 444 kts | 27° |
| 2026-04-22 21:02 | 38.29783 | -75.25578 | 37049 ft | 434 kts | 15° |
| 2026-04-22 21:03 | 38.35471 | -75.23007 | 37048 ft | 434 kts | 14° |
| 2026-04-22 21:03 | 38.41147 | -75.20365 | 37066 ft | 435 kts | 15° |
| 2026-04-22 21:04 | 38.46814 | -75.17634 | 37053 ft | 435 kts | 15° |
| 2026-04-22 21:04 | 38.52478 | -75.14877 | 37048 ft | 435 kts | 16° |
| 2026-04-22 21:05 | 38.58134 | -75.12123 | 37057 ft | 435 kts | 15° |
| 2026-04-22 21:05 | 38.63748 | -75.09367 | 37060 ft | 437 kts | 18° |
| 2026-04-22 21:06 | 38.66374 | -75.07341 | 37044 ft | 448 kts | 35° |
| 2026-04-22 21:06 | 38.68687 | -75.04648 | 37051 ft | 451 kts | 37° |
| 2026-04-22 21:06 | 38.73274 | -74.99183 | 37056 ft | 450 kts | 37° |
| 2026-04-22 21:07 | 38.77923 | -74.93802 | 37056 ft | 450 kts | 36° |
| 2026-04-22 21:07 | 38.82706 | -74.88671 | 37077 ft | 447 kts | 32° |
| 2026-04-22 21:08 | 38.87546 | -74.83747 | 37059 ft | 448 kts | 33° |
| 2026-04-22 21:08 | 38.92404 | -74.78730 | 37054 ft | 448 kts | 33° |
| 2026-04-22 21:09 | 38.97255 | -74.73675 | 36577 ft | 453 kts | 33° |
| 2026-04-22 21:09 | 38.99687 | -74.71125 | 36098 ft | 448 kts | 33° |
| 2026-04-22 21:09 | 39.02099 | -74.68589 | 35478 ft | 449 kts | 33° |
| 2026-04-22 21:10 | 39.04482 | -74.66081 | 34868 ft | 448 kts | 33° |
| 2026-04-22 21:10 | 39.06895 | -74.63541 | 34229 ft | 448 kts | 33° |
| 2026-04-22 21:10 | 39.09313 | -74.60996 | 33534 ft | 448 kts | 33° |
| 2026-04-22 21:10 | 39.11723 | -74.58457 | 32813 ft | 448 kts | 33° |
| 2026-04-22 21:11 | 39.14135 | -74.55913 | 32125 ft | 448 kts | 33° |
| 2026-04-22 21:11 | 39.16524 | -74.53350 | 31462 ft | 447 kts | 34° |
| 2026-04-22 21:11 | 39.18897 | -74.50761 | 30761 ft | 448 kts | 34° |
| 2026-04-22 21:11 | 39.21277 | -74.48152 | 30053 ft | 449 kts | 34° |
| 2026-04-22 21:12 | 39.23660 | -74.45542 | 29173 ft | 449 kts | 34° |
| 2026-04-22 21:12 | 39.26045 | -74.42936 | 28330 ft | 449 kts | 34° |
| 2026-04-22 21:12 | 39.28420 | -74.40340 | 27530 ft | 448 kts | 34° |
| 2026-04-22 21:12 | 39.30800 | -74.37729 | 26692 ft | 449 kts | 35° |
| 2026-04-22 21:13 | 39.33146 | -74.35147 | 26023 ft | 446 kts | 35° |
| 2026-04-22 21:13 | 39.35494 | -74.32556 | 25444 ft | 444 kts | 35° |
| 2026-04-22 21:13 | 39.37865 | -74.29944 | 24853 ft | 454 kts | 35° |
| 2026-04-22 21:13 | 39.40291 | -74.27271 | 24221 ft | 460 kts | 35° |
| 2026-04-22 21:14 | 39.42698 | -74.24610 | 23590 ft | 455 kts | 35° |
| 2026-04-22 21:14 | 39.45092 | -74.21959 | 22877 ft | 449 kts | 35° |
| 2026-04-22 21:14 | 39.47446 | -74.19345 | 22254 ft | 442 kts | 36° |
| 2026-04-22 21:14 | 39.49766 | -74.16761 | 21647 ft | 436 kts | 36° |
| 2026-04-22 21:15 | 39.52045 | -74.14220 | 21055 ft | 430 kts | 36° |
| 2026-04-22 21:15 | 39.54112 | -74.11491 | 20847 ft | 422 kts | 45° |
| 2026-04-22 21:15 | 39.55922 | -74.08559 | 20638 ft | 425 kts | 47° |
| 2026-04-22 21:15 | 39.57782 | -74.05474 | 20423 ft | 441 kts | 47° |
| 2026-04-22 21:16 | 39.59710 | -74.02367 | 20184 ft | 443 kts | 46° |
| 2026-04-22 21:16 | 39.61661 | -73.99289 | 19954 ft | 438 kts | 46° |
| 2026-04-22 21:16 | 39.63591 | -73.96262 | 19727 ft | 434 kts | 46° |
| 2026-04-22 21:16 | 39.65508 | -73.93257 | 19496 ft | 431 kts | 46° |
| 2026-04-22 21:17 | 39.67416 | -73.90263 | 19283 ft | 429 kts | 46° |
| 2026-04-22 21:17 | 39.69316 | -73.87276 | 19071 ft | 428 kts | 46° |
| 2026-04-22 21:17 | 39.71205 | -73.84302 | 18850 ft | 427 kts | 46° |
| 2026-04-22 21:17 | 39.73095 | -73.81321 | 18641 ft | 427 kts | 46° |
| 2026-04-22 21:18 | 39.74955 | -73.78384 | 18426 ft | 426 kts | 46° |
| 2026-04-22 21:18 | 39.76834 | -73.75415 | 18194 ft | 426 kts | 46° |
| 2026-04-22 21:18 | 39.78714 | -73.72440 | 17883 ft | 427 kts | 46° |
| 2026-04-22 21:18 | 39.80600 | -73.69455 | 17593 ft | 426 kts | 46° |
| 2026-04-22 21:19 | 39.82476 | -73.66481 | 17357 ft | 424 kts | 46° |
| 2026-04-22 21:19 | 39.84340 | -73.63521 | 17139 ft | 422 kts | 46° |
| 2026-04-22 21:19 | 39.86193 | -73.60579 | 16916 ft | 420 kts | 46° |
| 2026-04-22 21:19 | 39.88037 | -73.57649 | 16698 ft | 418 kts | 46° |
| 2026-04-22 21:20 | 39.89855 | -73.54758 | 16488 ft | 416 kts | 46° |
| 2026-04-22 21:20 | 39.91801 | -73.52003 | 16271 ft | 412 kts | 40° |
| 2026-04-22 21:20 | 39.93915 | -73.49489 | 16071 ft | 410 kts | 37° |
| 2026-04-22 21:20 | 39.96062 | -73.47066 | 15871 ft | 409 kts | 37° |
| 2026-04-22 21:21 | 39.98203 | -73.44645 | 15822 ft | 407 kts | 37° |
| 2026-04-22 21:21 | 40.00335 | -73.42195 | 15815 ft | 409 kts | 37° |
| 2026-04-22 21:21 | 40.02456 | -73.39718 | 15809 ft | 409 kts | 38° |
| 2026-04-22 21:21 | 40.04567 | -73.37224 | 15802 ft | 409 kts | 38° |
| 2026-04-22 21:22 | 40.06644 | -73.34755 | 15817 ft | 409 kts | 38° |
| 2026-04-22 21:22 | 40.08744 | -73.32258 | 15811 ft | 409 kts | 38° |
| 2026-04-22 21:22 | 40.10838 | -73.29766 | 15679 ft | 402 kts | 38° |
| 2026-04-22 21:22 | 40.12894 | -73.27316 | 15141 ft | 400 kts | 38° |
| 2026-04-22 21:23 | 40.14948 | -73.24869 | 14422 ft | 399 kts | 38° |
| 2026-04-22 21:23 | 40.17003 | -73.22421 | 13655 ft | 400 kts | 38° |
| 2026-04-22 21:23 | 40.19029 | -73.19999 | 13411 ft | 389 kts | 38° |
| 2026-04-22 21:23 | 40.21015 | -73.17625 | 13165 ft | 387 kts | 38° |
| 2026-04-22 21:24 | 40.23024 | -73.15227 | 12955 ft | 395 kts | 38° |
| 2026-04-22 21:24 | 40.25061 | -73.12792 | 12736 ft | 396 kts | 38° |
| 2026-04-22 21:24 | 40.27084 | -73.10366 | 12526 ft | 393 kts | 38° |
| 2026-04-22 21:24 | 40.29072 | -73.07983 | 12328 ft | 392 kts | 39° |
| 2026-04-22 21:25 | 40.31081 | -73.05576 | 12125 ft | 391 kts | 39° |
| 2026-04-22 21:25 | 40.33084 | -73.03173 | 11919 ft | 390 kts | 39° |
| 2026-04-22 21:25 | 40.35079 | -73.00778 | 11716 ft | 389 kts | 39° |
| 2026-04-22 21:25 | 40.37071 | -72.98386 | 11500 ft | 387 kts | 39° |
| 2026-04-22 21:26 | 40.39027 | -72.96033 | 11303 ft | 376 kts | 39° |
| 2026-04-22 21:26 | 40.40922 | -72.93749 | 11099 ft | 363 kts | 39° |
| 2026-04-22 21:26 | 40.42754 | -72.91541 | 10919 ft | 351 kts | 39° |
| 2026-04-22 21:26 | 40.44522 | -72.89408 | 10735 ft | 341 kts | 39° |
| 2026-04-22 21:27 | 40.46239 | -72.87336 | 10555 ft | 327 kts | 39° |
| 2026-04-22 21:27 | 40.47848 | -72.85392 | 10379 ft | 312 kts | 38° |
| 2026-04-22 21:27 | 40.49413 | -72.83500 | 10245 ft | 299 kts | 38° |
| 2026-04-22 21:27 | 40.50929 | -72.81669 | 10083 ft | 292 kts | 38° |
| 2026-04-22 21:28 | 40.52406 | -72.79882 | 9943 ft | 286 kts | 38° |
| 2026-04-22 21:28 | 40.53849 | -72.78135 | 9828 ft | 280 kts | 38° |
| 2026-04-22 21:28 | 40.55277 | -72.76406 | 9724 ft | 278 kts | 38° |
| 2026-04-22 21:28 | 40.56701 | -72.74681 | 9633 ft | 279 kts | 38° |
| 2026-04-22 21:29 | 40.58134 | -72.72943 | 9532 ft | 282 kts | 39° |
| 2026-04-22 21:29 | 40.59565 | -72.71208 | 9430 ft | 284 kts | 39° |
| 2026-04-22 21:29 | 40.61129 | -72.69679 | 9287 ft | 277 kts | 18° |
| 2026-04-22 21:29 | 40.62966 | -72.69145 | 9228 ft | 267 kts | 0° |
| 2026-04-22 21:30 | 40.64813 | -72.69070 | 9107 ft | 266 kts | 356° |
| 2026-04-22 21:30 | 40.66666 | -72.69093 | 8930 ft | 267 kts | 355° |
| 2026-04-22 21:30 | 40.68533 | -72.69129 | 8764 ft | 269 kts | 355° |
| 2026-04-22 21:30 | 40.70406 | -72.69158 | 8591 ft | 268 kts | 355° |
| 2026-04-22 21:31 | 40.72254 | -72.69178 | 8424 ft | 264 kts | 355° |
| 2026-04-22 21:31 | 40.74071 | -72.69191 | 8279 ft | 259 kts | 356° |
| 2026-04-22 21:31 | 40.75869 | -72.69199 | 8163 ft | 258 kts | 356° |
| 2026-04-22 21:31 | 40.77660 | -72.69206 | 8032 ft | 257 kts | 356° |
| 2026-04-22 21:32 | 40.79425 | -72.69210 | 7894 ft | 257 kts | 356° |
| 2026-04-22 21:32 | 40.81209 | -72.69127 | 7770 ft | 257 kts | 359° |
| 2026-04-22 21:32 | 40.83001 | -72.68986 | 7627 ft | 258 kts | 359° |
| 2026-04-22 21:32 | 40.84792 | -72.68836 | 7464 ft | 259 kts | 0° |
| 2026-04-22 21:33 | 40.86599 | -72.68687 | 7284 ft | 260 kts | 360° |
| 2026-04-22 21:33 | 40.88409 | -72.68538 | 7124 ft | 261 kts | 360° |
| 2026-04-22 21:33 | 40.90229 | -72.68387 | 6955 ft | 262 kts | 360° |
| 2026-04-22 21:33 | 40.92042 | -72.68238 | 6792 ft | 260 kts | 360° |
| 2026-04-22 21:34 | 40.93826 | -72.68091 | 6664 ft | 255 kts | 360° |
| 2026-04-22 21:34 | 40.95593 | -72.67942 | 6543 ft | 254 kts | 360° |
| 2026-04-22 21:34 | 40.97353 | -72.67794 | 6420 ft | 254 kts | 360° |
| 2026-04-22 21:34 | 40.99092 | -72.67648 | 6287 ft | 254 kts | 0° |
| 2026-04-22 21:35 | 41.00858 | -72.67506 | 6122 ft | 255 kts | 360° |
| 2026-04-22 21:35 | 41.02632 | -72.67370 | 5961 ft | 257 kts | 360° |
| 2026-04-22 21:35 | 41.04421 | -72.67239 | 5800 ft | 258 kts | 360° |
| 2026-04-22 21:35 | 41.06222 | -72.67111 | 5643 ft | 260 kts | 360° |
| 2026-04-22 21:36 | 41.08033 | -72.66989 | 5474 ft | 261 kts | 360° |
| 2026-04-22 21:36 | 41.09855 | -72.66872 | 5306 ft | 262 kts | 360° |
| 2026-04-22 21:36 | 41.11676 | -72.66760 | 5140 ft | 262 kts | 360° |
| 2026-04-22 21:36 | 41.13494 | -72.66653 | 4976 ft | 262 kts | 360° |
| 2026-04-22 21:37 | 41.15313 | -72.66551 | 4807 ft | 261 kts | 360° |
| 2026-04-22 21:37 | 41.17109 | -72.66452 | 4659 ft | 262 kts | 360° |
| 2026-04-22 21:37 | 41.18934 | -72.66353 | 4481 ft | 263 kts | 360° |
| 2026-04-22 21:37 | 41.20760 | -72.66257 | 4307 ft | 263 kts | 360° |
| 2026-04-22 21:38 | 41.22581 | -72.66165 | 4135 ft | 261 kts | 360° |
| 2026-04-22 21:38 | 41.24393 | -72.66076 | 3966 ft | 260 kts | 360° |
| 2026-04-22 21:38 | 41.26200 | -72.65991 | 3791 ft | 259 kts | 360° |
| 2026-04-22 21:38 | 41.28005 | -72.65909 | 3630 ft | 258 kts | 360° |
| 2026-04-22 21:39 | 41.29802 | -72.65827 | 3462 ft | 259 kts | 359° |
| 2026-04-22 21:39 | 41.31602 | -72.65733 | 3299 ft | 260 kts | 360° |
| 2026-04-22 21:39 | 41.33417 | -72.65640 | 3133 ft | 263 kts | 0° |
| 2026-04-22 21:39 | 41.35254 | -72.65554 | 2961 ft | 264 kts | 0° |
| 2026-04-22 21:40 | 41.37072 | -72.65475 | 2788 ft | 259 kts | 360° |
| 2026-04-22 21:40 | 41.38820 | -72.65644 | 2608 ft | 252 kts | 340° |
| 2026-04-22 21:40 | 41.40256 | -72.66817 | 2464 ft | 238 kts | 307° |
| 2026-04-22 21:40 | 41.40972 | -72.68688 | 2317 ft | 222 kts | 274° |
| 2026-04-22 21:41 | 41.40905 | -72.70675 | 2344 ft | 211 kts | 250° |
| 2026-04-22 21:41 | 41.40325 | -72.72451 | 2351 ft | 210 kts | 240° |
| 2026-04-22 21:41 | 41.39639 | -72.74271 | 2383 ft | 227 kts | 240° |
| 2026-04-22 21:41 | 41.38932 | -72.76164 | 2373 ft | 229 kts | 240° |
| 2026-04-22 21:42 | 41.38231 | -72.78046 | 2277 ft | 225 kts | 240° |
| 2026-04-22 21:42 | 41.37551 | -72.79880 | 2183 ft | 216 kts | 240° |
| 2026-04-22 21:42 | 41.36908 | -72.81624 | 2045 ft | 204 kts | 239° |
| 2026-04-22 21:42 | 41.36305 | -72.83251 | 1925 ft | 195 kts | 239° |
| 2026-04-22 21:43 | 41.35719 | -72.84834 | 1853 ft | 186 kts | 239° |
| 2026-04-22 21:43 | 41.35157 | -72.86345 | 1744 ft | 180 kts | 240° |
| 2026-04-22 21:43 | 41.34507 | -72.87758 | 1607 ft | 178 kts | 218° |
| 2026-04-22 21:43 | 41.33429 | -72.88263 | 1505 ft | 157 kts | 181° |
| 2026-04-22 21:44 | 41.32339 | -72.88338 | 1195 ft | 155 kts | 182° |
| 2026-04-22 21:44 | 41.31279 | -72.88418 | 945 ft | 149 kts | 182° |
| 2026-04-22 21:44 | 41.30272 | -72.88495 | 733 ft | 144 kts | 181° |
| 2026-04-22 21:44 | 41.29286 | -72.88569 | 519 ft | 141 kts | 180° |
| 2026-04-22 21:45 | 41.28315 | -72.88633 | 317 ft | 138 kts | 181° |
| 2026-04-22 21:45 | 41.27364 | -72.88701 | 101 ft | 140 kts | 182° |
| 2026-04-22 21:45 | 41.26419 | -72.88767 | 15 ft | 121 kts | 183° |
| 2026-04-22 21:45 | 41.25851 | -72.88809 | 18 ft | 44 kts | 184° |
| 2026-04-22 21:46 | 41.25640 | -72.88813 | 16 ft | 20 kts | 165° |
| 2026-04-22 21:46 | 41.25663 | -72.88722 | 16 ft | 15 kts | 5° |
| 2026-04-22 21:46 | 41.25763 | -72.88714 | 16 ft | 14 kts | 2° |
| 2026-04-22 21:46 | 41.25860 | -72.88704 | 16 ft | 14 kts | 8° |
| 2026-04-22 21:47 | 41.25952 | -72.88683 | 16 ft | 13 kts | 10° |
| 2026-04-22 21:47 | 41.26041 | -72.88661 | 16 ft | 15 kts | 10° |
| 2026-04-22 21:47 | 41.26162 | -72.88633 | 16 ft | 21 kts | 10° |
| 2026-04-22 21:47 | 41.26317 | -72.88565 | 16 ft | 24 kts | 39° |
| 2026-04-22 21:48 | 41.26418 | -72.88460 | 17 ft | 10 kts | 33° |
| 2026-04-22 21:48 | 41.26474 | -72.88497 | 16 ft | 10 kts | 311° |
| 2026-04-22 21:48 | 41.26529 | -72.88579 | 16 ft | 15 kts | 311° |
| 2026-04-22 21:48 | 41.26610 | -72.88698 | 16 ft | 19 kts | 312° |
| 2026-04-22 21:49 | 41.26698 | -72.88828 | 15 ft | 19 kts | 311° |
| 2026-04-22 21:49 | 41.26772 | -72.88938 | 18 ft | 12 kts | 312° |
| 2026-04-22 21:49 | 41.26820 | -72.89021 | 16 ft | 11 kts | 311° |
| 2026-04-22 21:49 | 41.26853 | -72.89071 | 17 ft | 1 kts | 311° |
| 2026-04-22 21:50 | 41.26855 | -72.89073 | 17 ft | 0 kts | 311° |
| 2026-04-22 21:50 | 41.26857 | -72.89077 | 16 ft | 0 kts | 311° |